sensor_id;sensor_type;location;lat;lon;timestamp;P1;durP1;ratioP1;P2;durP2;ratioP2
78916;SDS011;68315;48.608;11.436;2023-04-03T00:00:43;3.10;;;2.78;;
78916;SDS011;68315;48.608;11.436;2023-04-03T00:03:08;3.05;;;2.78;;
78916;SDS011;68315;48.608;11.436;2023-04-03T00:05:34;3.30;;;2.80;;
78916;SDS011;68315;48.608;11.436;2023-04-03T00:08:00;2.38;;;2.17;;
78916;SDS011;68315;48.608;11.436;2023-04-03T00:10:27;2.50;;;2.20;;
78916;SDS011;68315;48.608;11.436;2023-04-03T00:12:52;2.30;;;2.10;;
78916;SDS011;68315;48.608;11.436;2023-04-03T00:15:17;4.18;;;2.65;;
78916;SDS011;68315;48.608;11.436;2023-04-03T00:17:43;5.38;;;2.33;;
78916;SDS011;68315;48.608;11.436;2023-04-03T00:20:08;4.57;;;2.50;;
78916;SDS011;68315;48.608;11.436;2023-04-03T00:22:34;3.38;;;2.35;;
78916;SDS011;68315;48.608;11.436;2023-04-03T00:24:59;3.70;;;2.38;;
78916;SDS011;68315;48.608;11.436;2023-04-03T00:27:24;2.58;;;2.38;;
78916;SDS011;68315;48.608;11.436;2023-04-03T00:29:50;2.65;;;2.45;;
78916;SDS011;68315;48.608;11.436;2023-04-03T00:32:15;2.70;;;2.50;;
78916;SDS011;68315;48.608;11.436;2023-04-03T00:34:40;2.63;;;2.42;;
78916;SDS011;68315;48.608;11.436;2023-04-03T00:37:05;2.85;;;2.45;;
78916;SDS011;68315;48.608;11.436;2023-04-03T00:39:31;3.20;;;2.45;;
78916;SDS011;68315;48.608;11.436;2023-04-03T00:41:56;4.00;;;2.80;;
78916;SDS011;68315;48.608;11.436;2023-04-03T00:44:23;3.33;;;2.38;;
78916;SDS011;68315;48.608;11.436;2023-04-03T00:47:08;3.08;;;2.58;;
78916;SDS011;68315;48.608;11.436;2023-04-03T00:49:35;2.47;;;2.28;;
78916;SDS011;68315;48.608;11.436;2023-04-03T00:52:03;2.70;;;2.05;;
78916;SDS011;68315;48.608;11.436;2023-04-03T00:54:31;3.47;;;2.38;;
78916;SDS011;68315;48.608;11.436;2023-04-03T00:56:57;4.00;;;2.47;;
78916;SDS011;68315;48.608;11.436;2023-04-03T00:59:27;2.78;;;2.30;;
78916;SDS011;68315;48.608;11.436;2023-04-03T01:01:57;3.38;;;2.72;;
78916;SDS011;68315;48.608;11.436;2023-04-03T01:04:26;3.30;;;3.00;;
78916;SDS011;68315;48.608;11.436;2023-04-03T01:06:55;2.65;;;2.25;;
78916;SDS011;68315;48.608;11.436;2023-04-03T01:09:23;3.78;;;2.55;;
78916;SDS011;68315;48.608;11.436;2023-04-03T01:11:48;4.22;;;2.80;;
78916;SDS011;68315;48.608;11.436;2023-04-03T01:14:14;3.08;;;2.78;;
78916;SDS011;68315;48.608;11.436;2023-04-03T01:16:39;3.38;;;3.03;;
78916;SDS011;68315;48.608;11.436;2023-04-03T01:19:07;4.38;;;2.42;;
78916;SDS011;68315;48.608;11.436;2023-04-03T01:24:37;2.80;;;2.60;;
78916;SDS011;68315;48.608;11.436;2023-04-03T01:27:05;3.38;;;2.63;;
78916;SDS011;68315;48.608;11.436;2023-04-03T01:29:31;3.13;;;2.63;;
78916;SDS011;68315;48.608;11.436;2023-04-03T01:31:58;3.53;;;2.60;;
78916;SDS011;68315;48.608;11.436;2023-04-03T01:34:25;2.85;;;2.50;;
78916;SDS011;68315;48.608;11.436;2023-04-03T01:36:52;2.50;;;2.30;;
78916;SDS011;68315;48.608;11.436;2023-04-03T01:39:18;2.78;;;2.58;;
78916;SDS011;68315;48.608;11.436;2023-04-03T01:41:43;2.90;;;2.25;;
78916;SDS011;68315;48.608;11.436;2023-04-03T01:44:09;2.97;;;2.30;;
78916;SDS011;68315;48.608;11.436;2023-04-03T01:46:34;3.30;;;2.00;;
78916;SDS011;68315;48.608;11.436;2023-04-03T01:49:00;4.40;;;3.03;;
78916;SDS011;68315;48.608;11.436;2023-04-03T01:51:25;3.10;;;2.25;;
78916;SDS011;68315;48.608;11.436;2023-04-03T01:53:51;1.95;;;1.80;;
78916;SDS011;68315;48.608;11.436;2023-04-03T01:56:16;2.40;;;2.20;;
78916;SDS011;68315;48.608;11.436;2023-04-03T01:58:41;2.80;;;2.00;;
78916;SDS011;68315;48.608;11.436;2023-04-03T02:01:07;2.78;;;2.10;;
78916;SDS011;68315;48.608;11.436;2023-04-03T02:03:32;2.20;;;2.00;;
78916;SDS011;68315;48.608;11.436;2023-04-03T02:05:57;2.55;;;2.35;;
78916;SDS011;68315;48.608;11.436;2023-04-03T02:08:23;2.60;;;2.40;;
78916;SDS011;68315;48.608;11.436;2023-04-03T02:10:48;3.05;;;2.75;;
78916;SDS011;68315;48.608;11.436;2023-04-03T02:13:15;2.92;;;2.72;;
78916;SDS011;68315;48.608;11.436;2023-04-03T02:15:41;2.90;;;2.60;;
78916;SDS011;68315;48.608;11.436;2023-04-03T02:18:06;2.53;;;2.33;;
78916;SDS011;68315;48.608;11.436;2023-04-03T02:20:32;2.33;;;2.08;;
78916;SDS011;68315;48.608;11.436;2023-04-03T02:22:58;3.28;;;2.60;;
78916;SDS011;68315;48.608;11.436;2023-04-03T02:25:23;4.47;;;2.40;;
78916;SDS011;68315;48.608;11.436;2023-04-03T02:27:48;3.30;;;2.67;;
78916;SDS011;68315;48.608;11.436;2023-04-03T02:30:14;2.65;;;2.40;;
78916;SDS011;68315;48.608;11.436;2023-04-03T02:32:40;3.00;;;2.70;;
78916;SDS011;68315;48.608;11.436;2023-04-03T02:35:06;3.95;;;2.28;;
78916;SDS011;68315;48.608;11.436;2023-04-03T02:37:31;4.38;;;2.83;;
78916;SDS011;68315;48.608;11.436;2023-04-03T02:39:57;2.60;;;2.40;;
78916;SDS011;68315;48.608;11.436;2023-04-03T02:42:22;3.65;;;3.13;;
78916;SDS011;68315;48.608;11.436;2023-04-03T02:44:47;3.75;;;3.10;;
78916;SDS011;68315;48.608;11.436;2023-04-03T02:47:13;5.93;;;2.95;;
78916;SDS011;68315;48.608;11.436;2023-04-03T02:49:38;3.40;;;3.10;;
78916;SDS011;68315;48.608;11.436;2023-04-03T02:52:03;3.63;;;2.90;;
78916;SDS011;68315;48.608;11.436;2023-04-03T02:54:28;3.30;;;2.67;;
78916;SDS011;68315;48.608;11.436;2023-04-03T02:56:55;3.03;;;2.78;;
78916;SDS011;68315;48.608;11.436;2023-04-03T02:59:22;4.50;;;3.10;;
78916;SDS011;68315;48.608;11.436;2023-04-03T03:01:47;3.55;;;3.25;;
78916;SDS011;68315;48.608;11.436;2023-04-03T03:04:12;3.20;;;2.60;;
78916;SDS011;68315;48.608;11.436;2023-04-03T03:06:38;3.33;;;2.60;;
78916;SDS011;68315;48.608;11.436;2023-04-03T03:09:03;3.47;;;3.17;;
78916;SDS011;68315;48.608;11.436;2023-04-03T03:11:29;3.45;;;3.15;;
78916;SDS011;68315;48.608;11.436;2023-04-03T03:13:54;3.35;;;2.30;;
78916;SDS011;68315;48.608;11.436;2023-04-03T03:16:19;4.03;;;3.00;;
78916;SDS011;68315;48.608;11.436;2023-04-03T03:18:45;3.60;;;3.10;;
78916;SDS011;68315;48.608;11.436;2023-04-03T03:21:10;3.50;;;3.20;;
78916;SDS011;68315;48.608;11.436;2023-04-03T03:23:36;4.97;;;3.33;;
78916;SDS011;68315;48.608;11.436;2023-04-03T03:26:05;3.28;;;2.97;;
78916;SDS011;68315;48.608;11.436;2023-04-03T03:28:32;3.83;;;3.17;;
78916;SDS011;68315;48.608;11.436;2023-04-03T03:30:58;3.13;;;2.75;;
78916;SDS011;68315;48.608;11.436;2023-04-03T03:33:23;5.00;;;3.50;;
78916;SDS011;68315;48.608;11.436;2023-04-03T03:35:50;3.33;;;3.03;;
78916;SDS011;68315;48.608;11.436;2023-04-03T03:38:16;3.42;;;3.10;;
78916;SDS011;68315;48.608;11.436;2023-04-03T03:40:41;3.55;;;2.90;;
78916;SDS011;68315;48.608;11.436;2023-04-03T03:43:07;4.25;;;2.80;;
78916;SDS011;68315;48.608;11.436;2023-04-03T03:45:32;4.60;;;3.05;;
78916;SDS011;68315;48.608;11.436;2023-04-03T03:47:57;4.47;;;3.45;;
78916;SDS011;68315;48.608;11.436;2023-04-03T03:50:22;3.53;;;3.10;;
78916;SDS011;68315;48.608;11.436;2023-04-03T03:52:48;3.50;;;3.20;;
78916;SDS011;68315;48.608;11.436;2023-04-03T03:55:13;5.90;;;4.25;;
78916;SDS011;68315;48.608;11.436;2023-04-03T03:57:38;4.07;;;3.67;;
78916;SDS011;68315;48.608;11.436;2023-04-03T04:00:04;5.20;;;3.15;;
78916;SDS011;68315;48.608;11.436;2023-04-03T04:02:30;4.13;;;3.58;;
78916;SDS011;68315;48.608;11.436;2023-04-03T04:04:55;4.72;;;3.25;;
78916;SDS011;68315;48.608;11.436;2023-04-03T04:07:20;4.40;;;3.80;;
78916;SDS011;68315;48.608;11.436;2023-04-03T04:09:46;6.30;;;3.70;;
78916;SDS011;68315;48.608;11.436;2023-04-03T04:12:11;6.97;;;3.38;;
78916;SDS011;68315;48.608;11.436;2023-04-03T04:14:36;4.53;;;3.70;;
78916;SDS011;68315;48.608;11.436;2023-04-03T04:17:02;4.05;;;3.63;;
78916;SDS011;68315;48.608;11.436;2023-04-03T04:19:27;4.13;;;3.22;;
78916;SDS011;68315;48.608;11.436;2023-04-03T04:21:53;4.30;;;3.30;;
78916;SDS011;68315;48.608;11.436;2023-04-03T04:24:18;4.57;;;3.58;;
78916;SDS011;68315;48.608;11.436;2023-04-03T04:26:43;5.00;;;3.83;;
78916;SDS011;68315;48.608;11.436;2023-04-03T04:29:09;3.75;;;3.20;;
78916;SDS011;68315;48.608;11.436;2023-04-03T04:31:35;3.50;;;3.03;;
78916;SDS011;68315;48.608;11.436;2023-04-03T04:34:00;4.45;;;4.03;;
78916;SDS011;68315;48.608;11.436;2023-04-03T04:36:26;4.55;;;3.17;;
78916;SDS011;68315;48.608;11.436;2023-04-03T04:38:51;3.50;;;3.20;;
78916;SDS011;68315;48.608;11.436;2023-04-03T04:41:18;4.80;;;3.70;;
78916;SDS011;68315;48.608;11.436;2023-04-03T04:43:51;4.03;;;3.63;;
78916;SDS011;68315;48.608;11.436;2023-04-03T04:46:17;4.35;;;3.90;;
78916;SDS011;68315;48.608;11.436;2023-04-03T04:48:42;5.50;;;3.53;;
78916;SDS011;68315;48.608;11.436;2023-04-03T04:51:08;3.90;;;3.45;;
78916;SDS011;68315;48.608;11.436;2023-04-03T04:53:33;4.50;;;3.22;;
78916;SDS011;68315;48.608;11.436;2023-04-03T04:55:59;3.97;;;3.58;;
78916;SDS011;68315;48.608;11.436;2023-04-03T04:58:24;4.88;;;4.00;;
78916;SDS011;68315;48.608;11.436;2023-04-03T05:00:57;4.20;;;3.40;;
78916;SDS011;68315;48.608;11.436;2023-04-03T05:03:23;3.90;;;3.60;;
78916;SDS011;68315;48.608;11.436;2023-04-03T05:05:49;4.07;;;3.55;;
78916;SDS011;68315;48.608;11.436;2023-04-03T05:08:14;5.30;;;3.55;;
78916;SDS011;68315;48.608;11.436;2023-04-03T05:10:39;6.05;;;3.97;;
78916;SDS011;68315;48.608;11.436;2023-04-03T05:13:06;3.92;;;3.45;;
78916;SDS011;68315;48.608;11.436;2023-04-03T05:15:31;6.38;;;3.10;;
78916;SDS011;68315;48.608;11.436;2023-04-03T05:17:56;6.05;;;3.92;;
78916;SDS011;68315;48.608;11.436;2023-04-03T05:20:22;5.50;;;3.80;;
78916;SDS011;68315;48.608;11.436;2023-04-03T05:22:47;4.03;;;3.63;;
78916;SDS011;68315;48.608;11.436;2023-04-03T05:25:12;4.63;;;3.40;;
78916;SDS011;68315;48.608;11.436;2023-04-03T05:27:37;5.35;;;3.78;;
78916;SDS011;68315;48.608;11.436;2023-04-03T05:30:03;4.63;;;3.00;;
78916;SDS011;68315;48.608;11.436;2023-04-03T05:32:29;3.80;;;3.15;;
78916;SDS011;68315;48.608;11.436;2023-04-03T05:34:54;4.00;;;3.30;;
78916;SDS011;68315;48.608;11.436;2023-04-03T05:37:20;3.05;;;2.75;;
78916;SDS011;68315;48.608;11.436;2023-04-03T05:39:45;4.18;;;3.45;;
78916;SDS011;68315;48.608;11.436;2023-04-03T05:42:10;7.55;;;3.92;;
78916;SDS011;68315;48.608;11.436;2023-04-03T05:44:36;4.57;;;4.00;;
78916;SDS011;68315;48.608;11.436;2023-04-03T05:47:02;4.45;;;3.08;;
78916;SDS011;68315;48.608;11.436;2023-04-03T05:49:28;5.30;;;3.63;;
78916;SDS011;68315;48.608;11.436;2023-04-03T05:51:53;3.50;;;3.17;;
78916;SDS011;68315;48.608;11.436;2023-04-03T05:54:20;5.07;;;3.85;;
78916;SDS011;68315;48.608;11.436;2023-04-03T05:56:48;6.15;;;3.45;;
78916;SDS011;68315;48.608;11.436;2023-04-03T05:59:14;4.25;;;3.65;;
78916;SDS011;68315;48.608;11.436;2023-04-03T06:01:39;4.40;;;3.28;;
78916;SDS011;68315;48.608;11.436;2023-04-03T06:04:04;7.10;;;3.35;;
78916;SDS011;68315;48.608;11.436;2023-04-03T06:06:46;7.95;;;3.60;;
78916;SDS011;68315;48.608;11.436;2023-04-03T06:09:14;4.82;;;3.45;;
78916;SDS011;68315;48.608;11.436;2023-04-03T06:11:41;4.97;;;3.47;;
78916;SDS011;68315;48.608;11.436;2023-04-03T06:14:06;4.85;;;3.47;;
78916;SDS011;68315;48.608;11.436;2023-04-03T06:16:33;6.28;;;3.60;;
78916;SDS011;68315;48.608;11.436;2023-04-03T06:18:58;5.13;;;4.07;;
78916;SDS011;68315;48.608;11.436;2023-04-03T06:21:23;4.32;;;3.60;;
78916;SDS011;68315;48.608;11.436;2023-04-03T06:23:49;5.97;;;3.47;;
78916;SDS011;68315;48.608;11.436;2023-04-03T06:26:14;6.25;;;3.50;;
78916;SDS011;68315;48.608;11.436;2023-04-03T06:28:39;5.05;;;3.60;;
78916;SDS011;68315;48.608;11.436;2023-04-03T06:31:05;4.85;;;3.30;;
78916;SDS011;68315;48.608;11.436;2023-04-03T06:33:30;6.57;;;3.72;;
78916;SDS011;68315;48.608;11.436;2023-04-03T06:35:56;4.68;;;3.38;;
78916;SDS011;68315;48.608;11.436;2023-04-03T06:38:23;4.95;;;3.35;;
78916;SDS011;68315;48.608;11.436;2023-04-03T06:40:48;6.65;;;3.90;;
78916;SDS011;68315;48.608;11.436;2023-04-03T06:43:13;4.07;;;3.58;;
78916;SDS011;68315;48.608;11.436;2023-04-03T06:45:38;6.20;;;3.15;;
78916;SDS011;68315;48.608;11.436;2023-04-03T06:48:04;4.72;;;3.72;;
78916;SDS011;68315;48.608;11.436;2023-04-03T06:50:30;4.55;;;3.53;;
78916;SDS011;68315;48.608;11.436;2023-04-03T06:52:55;4.28;;;2.90;;
78916;SDS011;68315;48.608;11.436;2023-04-03T06:55:21;5.25;;;3.50;;
78916;SDS011;68315;48.608;11.436;2023-04-03T06:57:46;5.07;;;3.50;;
78916;SDS011;68315;48.608;11.436;2023-04-03T07:00:12;5.70;;;3.75;;
78916;SDS011;68315;48.608;11.436;2023-04-03T07:02:38;4.07;;;3.17;;
78916;SDS011;68315;48.608;11.436;2023-04-03T07:05:03;4.50;;;3.63;;
78916;SDS011;68315;48.608;11.436;2023-04-03T07:07:28;4.97;;;3.80;;
78916;SDS011;68315;48.608;11.436;2023-04-03T07:09:54;5.68;;;3.78;;
78916;SDS011;68315;48.608;11.436;2023-04-03T07:12:19;7.05;;;4.18;;
78916;SDS011;68315;48.608;11.436;2023-04-03T07:14:45;4.63;;;3.67;;
78916;SDS011;68315;48.608;11.436;2023-04-03T07:17:10;5.22;;;3.50;;
78916;SDS011;68315;48.608;11.436;2023-04-03T07:19:36;6.45;;;3.35;;
78916;SDS011;68315;48.608;11.436;2023-04-03T07:22:01;6.05;;;4.20;;
78916;SDS011;68315;48.608;11.436;2023-04-03T07:24:26;5.15;;;3.65;;
78916;SDS011;68315;48.608;11.436;2023-04-03T07:26:52;6.45;;;4.38;;
78916;SDS011;68315;48.608;11.436;2023-04-03T07:29:18;6.50;;;3.95;;
78916;SDS011;68315;48.608;11.436;2023-04-03T07:31:43;6.25;;;4.40;;
78916;SDS011;68315;48.608;11.436;2023-04-03T07:34:09;7.70;;;4.13;;
78916;SDS011;68315;48.608;11.436;2023-04-03T07:36:35;4.57;;;3.53;;
78916;SDS011;68315;48.608;11.436;2023-04-03T07:39:01;5.82;;;3.70;;
78916;SDS011;68315;48.608;11.436;2023-04-03T07:41:26;5.82;;;4.18;;
78916;SDS011;68315;48.608;11.436;2023-04-03T07:43:51;5.20;;;4.10;;
78916;SDS011;68315;48.608;11.436;2023-04-03T07:46:17;4.80;;;4.30;;
78916;SDS011;68315;48.608;11.436;2023-04-03T07:48:43;6.43;;;4.40;;
78916;SDS011;68315;48.608;11.436;2023-04-03T07:51:09;4.95;;;4.05;;
78916;SDS011;68315;48.608;11.436;2023-04-03T07:53:35;5.25;;;3.90;;
78916;SDS011;68315;48.608;11.436;2023-04-03T07:56:00;5.53;;;3.80;;
78916;SDS011;68315;48.608;11.436;2023-04-03T07:58:27;5.10;;;3.90;;
78916;SDS011;68315;48.608;11.436;2023-04-03T08:00:52;11.02;;;3.90;;
78916;SDS011;68315;48.608;11.436;2023-04-03T08:03:18;5.90;;;4.30;;
78916;SDS011;68315;48.608;11.436;2023-04-03T08:05:44;4.40;;;3.88;;
78916;SDS011;68315;48.608;11.436;2023-04-03T08:08:11;5.10;;;4.07;;
78916;SDS011;68315;48.608;11.436;2023-04-03T08:10:38;4.13;;;3.72;;
78916;SDS011;68315;48.608;11.436;2023-04-03T08:13:06;5.82;;;3.92;;
78916;SDS011;68315;48.608;11.436;2023-04-03T08:15:32;6.07;;;4.53;;
78916;SDS011;68315;48.608;11.436;2023-04-03T08:17:58;5.85;;;4.00;;
78916;SDS011;68315;48.608;11.436;2023-04-03T08:20:24;5.95;;;4.18;;
78916;SDS011;68315;48.608;11.436;2023-04-03T08:22:50;5.22;;;3.78;;
78916;SDS011;68315;48.608;11.436;2023-04-03T08:25:15;5.75;;;4.63;;
78916;SDS011;68315;48.608;11.436;2023-04-03T08:27:42;5.90;;;4.40;;
78916;SDS011;68315;48.608;11.436;2023-04-03T08:30:08;5.72;;;4.20;;
78916;SDS011;68315;48.608;11.436;2023-04-03T08:32:34;7.15;;;4.45;;
78916;SDS011;68315;48.608;11.436;2023-04-03T08:34:59;5.30;;;4.20;;
78916;SDS011;68315;48.608;11.436;2023-04-03T08:37:25;5.65;;;4.60;;
78916;SDS011;68315;48.608;11.436;2023-04-03T08:39:51;5.78;;;4.43;;
78916;SDS011;68315;48.608;11.436;2023-04-03T08:45:10;6.57;;;4.32;;
78916;SDS011;68315;48.608;11.436;2023-04-03T08:50:22;6.53;;;3.97;;
78916;SDS011;68315;48.608;11.436;2023-04-03T08:52:55;4.80;;;4.15;;
78916;SDS011;68315;48.608;11.436;2023-04-03T08:57:51;5.97;;;4.25;;
78916;SDS011;68315;48.608;11.436;2023-04-03T09:00:25;5.57;;;4.35;;
78916;SDS011;68315;48.608;11.436;2023-04-03T09:02:54;5.65;;;4.13;;
78916;SDS011;68315;48.608;11.436;2023-04-03T09:08:17;5.38;;;4.22;;
78916;SDS011;68315;48.608;11.436;2023-04-03T09:10:47;6.50;;;4.25;;
78916;SDS011;68315;48.608;11.436;2023-04-03T09:13:26;7.40;;;4.10;;
78916;SDS011;68315;48.608;11.436;2023-04-03T09:15:56;4.88;;;3.67;;
78916;SDS011;68315;48.608;11.436;2023-04-03T09:18:32;5.82;;;4.03;;
78916;SDS011;68315;48.608;11.436;2023-04-03T09:21:17;5.45;;;3.78;;
78916;SDS011;68315;48.608;11.436;2023-04-03T09:23:53;5.85;;;3.83;;
78916;SDS011;68315;48.608;11.436;2023-04-03T09:28:48;6.30;;;3.63;;
78916;SDS011;68315;48.608;11.436;2023-04-03T09:31:18;4.95;;;3.85;;
78916;SDS011;68315;48.608;11.436;2023-04-03T09:33:44;4.78;;;3.67;;
78916;SDS011;68315;48.608;11.436;2023-04-03T09:36:11;7.22;;;3.63;;
78916;SDS011;68315;48.608;11.436;2023-04-03T09:38:36;3.80;;;3.40;;
78916;SDS011;68315;48.608;11.436;2023-04-03T09:41:16;9.60;;;3.80;;
78916;SDS011;68315;48.608;11.436;2023-04-03T09:43:51;4.50;;;3.70;;
78916;SDS011;68315;48.608;11.436;2023-04-03T09:46:24;6.05;;;3.50;;
78916;SDS011;68315;48.608;11.436;2023-04-03T09:48:58;4.65;;;3.30;;
78916;SDS011;68315;48.608;11.436;2023-04-03T09:51:25;5.13;;;3.65;;
78916;SDS011;68315;48.608;11.436;2023-04-03T09:53:54;4.90;;;3.60;;
78916;SDS011;68315;48.608;11.436;2023-04-03T09:56:22;5.15;;;3.22;;
78916;SDS011;68315;48.608;11.436;2023-04-03T10:01:28;3.65;;;3.10;;
78916;SDS011;68315;48.608;11.436;2023-04-03T10:04:13;3.85;;;3.05;;
78916;SDS011;68315;48.608;11.436;2023-04-03T10:09:22;6.45;;;3.08;;
78916;SDS011;68315;48.608;11.436;2023-04-03T10:12:08;3.08;;;2.60;;
78916;SDS011;68315;48.608;11.436;2023-04-03T10:14:39;3.78;;;2.50;;
78916;SDS011;68315;48.608;11.436;2023-04-03T10:19:43;2.80;;;2.40;;
78916;SDS011;68315;48.608;11.436;2023-04-03T10:25:17;2.85;;;2.60;;
78916;SDS011;68315;48.608;11.436;2023-04-03T10:33:04;3.65;;;2.60;;
78916;SDS011;68315;48.608;11.436;2023-04-03T10:36:25;2.45;;;2.22;;
78916;SDS011;68315;48.608;11.436;2023-04-03T10:41:47;2.67;;;2.13;;
78916;SDS011;68315;48.608;11.436;2023-04-03T10:44:23;4.50;;;2.53;;
78916;SDS011;68315;48.608;11.436;2023-04-03T10:47:20;4.10;;;2.30;;
78916;SDS011;68315;48.608;11.436;2023-04-03T10:57:45;3.38;;;2.15;;
78916;SDS011;68315;48.608;11.436;2023-04-03T11:00:19;3.72;;;2.20;;
78916;SDS011;68315;48.608;11.436;2023-04-03T11:02:54;3.72;;;1.95;;
78916;SDS011;68315;48.608;11.436;2023-04-03T11:05:30;2.92;;;2.13;;
78916;SDS011;68315;48.608;11.436;2023-04-03T11:13:17;2.42;;;2.20;;
78916;SDS011;68315;48.608;11.436;2023-04-03T11:15:48;3.08;;;2.00;;
78916;SDS011;68315;48.608;11.436;2023-04-03T11:18:19;3.08;;;2.10;;
78916;SDS011;68315;48.608;11.436;2023-04-03T11:21:01;4.38;;;2.00;;
78916;SDS011;68315;48.608;11.436;2023-04-03T11:23:33;3.25;;;2.00;;
78916;SDS011;68315;48.608;11.436;2023-04-03T11:26:14;3.45;;;2.08;;
78916;SDS011;68315;48.608;11.436;2023-04-03T11:28:43;3.05;;;1.80;;
78916;SDS011;68315;48.608;11.436;2023-04-03T11:36:46;2.87;;;1.73;;
78916;SDS011;68315;48.608;11.436;2023-04-03T11:39:32;2.15;;;1.48;;
78916;SDS011;68315;48.608;11.436;2023-04-03T11:42:15;2.33;;;1.55;;
78916;SDS011;68315;48.608;11.436;2023-04-03T11:44:46;2.97;;;1.70;;
78916;SDS011;68315;48.608;11.436;2023-04-03T11:47:12;2.83;;;1.70;;
78916;SDS011;68315;48.608;11.436;2023-04-03T12:00:45;4.47;;;1.70;;
78916;SDS011;68315;48.608;11.436;2023-04-03T12:05:55;3.80;;;1.52;;
78916;SDS011;68315;48.608;11.436;2023-04-03T12:16:19;3.28;;;1.70;;
78916;SDS011;68315;48.608;11.436;2023-04-03T12:21:21;3.35;;;1.70;;
78916;SDS011;68315;48.608;11.436;2023-04-03T12:24:02;2.17;;;1.38;;
78916;SDS011;68315;48.608;11.436;2023-04-03T12:34:43;2.03;;;1.50;;
78916;SDS011;68315;48.608;11.436;2023-04-03T12:48:28;2.60;;;1.60;;
78916;SDS011;68315;48.608;11.436;2023-04-03T12:50:55;3.60;;;1.27;;
78916;SDS011;68315;48.608;11.436;2023-04-03T12:53:24;2.05;;;1.50;;
78916;SDS011;68315;48.608;11.436;2023-04-03T12:55:55;2.00;;;1.45;;
78916;SDS011;68315;48.608;11.436;2023-04-03T12:58:25;2.10;;;1.42;;
78916;SDS011;68315;48.608;11.436;2023-04-03T13:01:03;2.55;;;1.33;;
78916;SDS011;68315;48.608;11.436;2023-04-03T13:03:34;1.90;;;1.50;;
78916;SDS011;68315;48.608;11.436;2023-04-03T13:06:04;2.20;;;1.48;;
78916;SDS011;68315;48.608;11.436;2023-04-03T13:08:29;2.03;;;1.23;;
78916;SDS011;68315;48.608;11.436;2023-04-03T13:11:02;2.08;;;1.33;;
78916;SDS011;68315;48.608;11.436;2023-04-03T13:13:33;2.20;;;1.20;;
78916;SDS011;68315;48.608;11.436;2023-04-03T13:15:59;2.60;;;1.58;;
78916;SDS011;68315;48.608;11.436;2023-04-03T13:18:26;3.25;;;1.70;;
78916;SDS011;68315;48.608;11.436;2023-04-03T13:21:18;2.83;;;1.33;;
78916;SDS011;68315;48.608;11.436;2023-04-03T13:23:45;3.15;;;1.63;;
78916;SDS011;68315;48.608;11.436;2023-04-03T13:26:15;1.75;;;1.48;;
78916;SDS011;68315;48.608;11.436;2023-04-03T13:28:43;2.90;;;1.48;;
78916;SDS011;68315;48.608;11.436;2023-04-03T13:34:02;2.70;;;1.60;;
78916;SDS011;68315;48.608;11.436;2023-04-03T13:36:31;3.78;;;1.85;;
78916;SDS011;68315;48.608;11.436;2023-04-03T13:41:40;2.72;;;1.23;;
78916;SDS011;68315;48.608;11.436;2023-04-03T13:44:14;1.88;;;1.23;;
78916;SDS011;68315;48.608;11.436;2023-04-03T13:46:40;2.30;;;1.20;;
78916;SDS011;68315;48.608;11.436;2023-04-03T13:49:16;1.70;;;1.30;;
78916;SDS011;68315;48.608;11.436;2023-04-03T13:51:43;1.73;;;1.33;;
78916;SDS011;68315;48.608;11.436;2023-04-03T13:54:16;2.28;;;1.40;;
78916;SDS011;68315;48.608;11.436;2023-04-03T13:56:44;1.63;;;1.35;;
78916;SDS011;68315;48.608;11.436;2023-04-03T14:01:41;3.08;;;1.30;;
78916;SDS011;68315;48.608;11.436;2023-04-03T14:04:11;2.50;;;1.35;;
78916;SDS011;68315;48.608;11.436;2023-04-03T14:06:42;2.25;;;1.33;;
78916;SDS011;68315;48.608;11.436;2023-04-03T14:09:08;2.17;;;1.35;;
78916;SDS011;68315;48.608;11.436;2023-04-03T14:11:41;1.75;;;1.40;;
78916;SDS011;68315;48.608;11.436;2023-04-03T14:14:14;3.17;;;1.42;;
78916;SDS011;68315;48.608;11.436;2023-04-03T14:16:57;2.95;;;1.45;;
78916;SDS011;68315;48.608;11.436;2023-04-03T14:19:32;1.75;;;1.20;;
78916;SDS011;68315;48.608;11.436;2023-04-03T14:21:58;2.25;;;1.33;;
78916;SDS011;68315;48.608;11.436;2023-04-03T14:24:25;3.42;;;1.20;;
78916;SDS011;68315;48.608;11.436;2023-04-03T14:26:52;3.17;;;1.30;;
78916;SDS011;68315;48.608;11.436;2023-04-03T14:29:22;1.90;;;1.17;;
78916;SDS011;68315;48.608;11.436;2023-04-03T14:31:48;1.75;;;1.45;;
78916;SDS011;68315;48.608;11.436;2023-04-03T14:34:14;1.95;;;1.30;;
78916;SDS011;68315;48.608;11.436;2023-04-03T14:36:41;3.25;;;1.58;;
78916;SDS011;68315;48.608;11.436;2023-04-03T14:39:08;2.50;;;1.60;;
78916;SDS011;68315;48.608;11.436;2023-04-03T14:41:43;2.38;;;1.60;;
78916;SDS011;68315;48.608;11.436;2023-04-03T14:44:10;2.00;;;1.27;;
78916;SDS011;68315;48.608;11.436;2023-04-03T14:46:35;1.80;;;1.30;;
78916;SDS011;68315;48.608;11.436;2023-04-03T14:49:03;3.05;;;1.40;;
78916;SDS011;68315;48.608;11.436;2023-04-03T14:51:34;2.03;;;1.30;;
78916;SDS011;68315;48.608;11.436;2023-04-03T14:54:00;2.00;;;1.30;;
78916;SDS011;68315;48.608;11.436;2023-04-03T14:56:27;1.88;;;1.38;;
78916;SDS011;68315;48.608;11.436;2023-04-03T14:58:56;3.38;;;1.75;;
78916;SDS011;68315;48.608;11.436;2023-04-03T15:01:23;2.65;;;1.40;;
78916;SDS011;68315;48.608;11.436;2023-04-03T15:03:49;2.13;;;1.50;;
78916;SDS011;68315;48.608;11.436;2023-04-03T15:06:14;2.10;;;1.30;;
78916;SDS011;68315;48.608;11.436;2023-04-03T15:08:41;2.90;;;1.20;;
78916;SDS011;68315;48.608;11.436;2023-04-03T15:11:09;2.72;;;1.52;;
78916;SDS011;68315;48.608;11.436;2023-04-03T15:13:35;2.10;;;1.60;;
78916;SDS011;68315;48.608;11.436;2023-04-03T15:16:02;2.63;;;1.40;;
78916;SDS011;68315;48.608;11.436;2023-04-03T15:18:29;1.85;;;1.63;;
78916;SDS011;68315;48.608;11.436;2023-04-03T15:21:00;2.10;;;1.52;;
78916;SDS011;68315;48.608;11.436;2023-04-03T15:23:25;3.85;;;1.85;;
78916;SDS011;68315;48.608;11.436;2023-04-03T15:25:51;2.97;;;1.65;;
78916;SDS011;68315;48.608;11.436;2023-04-03T15:28:40;2.72;;;1.80;;
78916;SDS011;68315;48.608;11.436;2023-04-03T15:31:07;3.33;;;1.80;;
78916;SDS011;68315;48.608;11.436;2023-04-03T15:33:33;2.85;;;1.50;;
78916;SDS011;68315;48.608;11.436;2023-04-03T15:35:59;2.80;;;1.65;;
78916;SDS011;68315;48.608;11.436;2023-04-03T15:38:25;2.80;;;1.67;;
78916;SDS011;68315;48.608;11.436;2023-04-03T15:40:50;2.72;;;1.60;;
78916;SDS011;68315;48.608;11.436;2023-04-03T15:43:16;2.90;;;1.80;;
78916;SDS011;68315;48.608;11.436;2023-04-03T15:45:41;2.25;;;1.60;;
78916;SDS011;68315;48.608;11.436;2023-04-03T15:48:08;2.60;;;1.40;;
78916;SDS011;68315;48.608;11.436;2023-04-03T15:50:34;1.75;;;1.30;;
78916;SDS011;68315;48.608;11.436;2023-04-03T15:53:00;3.50;;;1.55;;
78916;SDS011;68315;48.608;11.436;2023-04-03T15:55:27;3.03;;;1.50;;
78916;SDS011;68315;48.608;11.436;2023-04-03T15:57:54;1.50;;;1.20;;
78916;SDS011;68315;48.608;11.436;2023-04-03T16:00:20;1.50;;;1.23;;
78916;SDS011;68315;48.608;11.436;2023-04-03T16:02:47;2.30;;;1.55;;
78916;SDS011;68315;48.608;11.436;2023-04-03T16:05:15;1.83;;;1.50;;
78916;SDS011;68315;48.608;11.436;2023-04-03T16:07:42;2.03;;;1.48;;
78916;SDS011;68315;48.608;11.436;2023-04-03T16:10:09;1.73;;;1.40;;
78916;SDS011;68315;48.608;11.436;2023-04-03T16:12:35;3.33;;;1.60;;
78916;SDS011;68315;48.608;11.436;2023-04-03T16:15:02;1.88;;;1.42;;
78916;SDS011;68315;48.608;11.436;2023-04-03T16:17:28;2.70;;;1.60;;
78916;SDS011;68315;48.608;11.436;2023-04-03T16:19:55;1.63;;;1.50;;
78916;SDS011;68315;48.608;11.436;2023-04-03T16:22:21;2.38;;;1.88;;